Time;durP1;ratioP1;P1;durP2;ratioP2;P2;SDS_P1;SDS_P2;PMS_P1;PMS_P2;Temp;Humidity;BMP_temperature;BMP_pressure;BME280_temperature;BME280_humidity;BME280_pressure;Samples;Min_cycle;Max_cycle;Signal;HPM_P1;HPM_P2
2023/03/09 00:02:04;;;;;;;16.92;7.20;;;5.20;99.90;;;;;;4989126;28;20037;-86
2023/03/09 00:04:31;;;;;;;18.07;7.83;;;5.20;99.90;;;;;;4980356;28;20399;-86
2023/03/09 00:06:57;;;;;;;18.55;7.57;;;5.20;99.90;;;;;;4984910;28;20162;-87
2023/03/09 00:09:23;;;;;;;17.38;7.20;;;5.20;99.90;;;;;;4983501;28;20022;-88
2023/03/09 00:11:49;;;;;;;16.48;6.57;;;5.20;99.90;;;;;;4958038;28;20025;-88
2023/03/09 00:14:18;;;;;;;15.37;6.13;;;5.20;99.90;;;;;;4983115;28;20124;-88
2023/03/09 00:16:44;;;;;;;16.17;6.28;;;5.20;99.90;;;;;;4971924;28;20346;-89
2023/03/09 00:19:10;;;;;;;16.80;6.40;;;5.20;99.90;;;;;;5014381;28;20128;-88
2023/03/09 00:21:40;;;;;;;16.03;6.73;;;5.20;99.90;;;;;;4975294;28;20025;-87
2023/03/09 00:24:10;;;;;;;14.32;6.15;;;5.20;99.90;;;;;;5016493;28;20021;-87
2023/03/09 00:26:39;;;;;;;13.93;6.13;;;5.20;99.90;;;;;;5002814;28;20066;-86
2023/03/09 00:29:06;;;;;;;15.90;6.15;;;5.20;99.90;;;;;;4967003;28;20427;-87
2023/03/09 00:31:32;;;;;;;15.38;6.30;;;5.30;99.90;;;;;;4975559;28;20507;-87
2023/03/09 00:33:58;;;;;;;16.03;6.53;;;5.30;99.90;;;;;;4973265;28;20030;-87
2023/03/09 00:36:24;;;;;;;16.05;6.00;;;5.20;99.90;;;;;;4993281;28;20048;-86
2023/03/09 00:38:55;;;;;;;15.23;5.63;;;5.30;99.90;;;;;;4987970;28;20034;-85
2023/03/09 00:41:22;;;;;;;15.48;6.05;;;5.30;99.90;;;;;;5015051;28;20029;-85
2023/03/09 00:43:48;;;;;;;14.23;5.83;;;5.30;99.90;;;;;;4995044;28;20035;-85
2023/03/09 00:46:14;;;;;;;16.58;6.60;;;5.30;99.90;;;;;;4980204;28;20107;-85
2023/03/09 00:48:40;;;;;;;17.10;6.55;;;5.30;99.90;;;;;;4996453;28;20028;-86
2023/03/09 00:51:07;;;;;;;16.13;6.13;;;5.30;99.90;;;;;;4974807;28;20053;-86
2023/03/09 00:53:33;;;;;;;13.30;5.40;;;5.30;99.90;;;;;;4967333;28;20022;-85
2023/03/09 00:56:08;;;;;;;15.98;6.10;;;5.30;99.90;;;;;;4982748;28;20028;-86
2023/03/09 00:58:35;;;;;;;12.48;5.13;;;5.30;99.90;;;;;;4960663;28;20060;-86
2023/03/09 01:01:00;;;;;;;13.70;5.13;;;5.30;99.90;;;;;;4983246;28;20033;-87
2023/03/09 01:03:26;;;;;;;12.90;5.30;;;5.30;99.90;;;;;;5002159;28;20515;-86
2023/03/09 01:05:55;;;;;;;13.50;5.18;;;5.30;99.90;;;;;;4984595;28;20061;-86
2023/03/09 01:08:20;;;;;;;12.90;5.45;;;5.30;99.90;;;;;;4960643;28;20155;-85
2023/03/09 01:10:46;;;;;;;14.73;6.00;;;5.30;99.90;;;;;;4985252;28;20487;-85
2023/03/09 01:13:12;;;;;;;14.30;5.77;;;5.30;99.90;;;;;;4996542;28;20155;-86
2023/03/09 01:15:37;;;;;;;12.90;5.37;;;5.30;99.90;;;;;;4980035;28;20208;-86
2023/03/09 01:18:03;;;;;;;14.53;6.33;;;5.30;99.90;;;;;;4969079;28;20288;-87
2023/03/09 01:20:29;;;;;;;14.35;5.28;;;5.30;99.90;;;;;;4998330;28;20162;-87
2023/03/09 01:22:55;;;;;;;14.00;5.55;;;5.30;99.90;;;;;;4994294;28;20499;-87
2023/03/09 01:25:21;;;;;;;12.67;5.60;;;5.30;99.90;;;;;;4972027;28;20235;-87
2023/03/09 01:27:47;;;;;;;14.55;5.55;;;5.30;99.90;;;;;;5016686;28;20583;-85
2023/03/09 01:30:13;;;;;;;15.90;6.20;;;5.30;99.90;;;;;;4959522;28;20014;-85
2023/03/09 01:32:39;;;;;;;12.60;5.40;;;5.30;99.90;;;;;;4972671;28;20056;-86
2023/03/09 01:35:05;;;;;;;13.40;5.07;;;5.30;99.90;;;;;;5002139;28;20116;-87
2023/03/09 01:37:31;;;;;;;14.25;5.50;;;5.40;99.90;;;;;;5000411;28;20015;-87
2023/03/09 01:39:57;;;;;;;13.73;5.87;;;5.40;99.90;;;;;;4974750;28;20029;-87
2023/03/09 01:42:23;;;;;;;11.98;5.25;;;5.40;99.90;;;;;;4992056;28;20026;-87
2023/03/09 01:45:11;;;;;;;11.85;5.05;;;5.40;99.90;;;;;;5012984;28;20022;-86
2023/03/09 01:47:36;;;;;;;12.80;5.25;;;5.40;99.90;;;;;;4982306;28;20036;-85
2023/03/09 01:50:04;;;;;;;12.70;5.03;;;5.40;99.90;;;;;;4963280;28;20026;-87
2023/03/09 01:52:33;;;;;;;14.43;5.93;;;5.40;99.90;;;;;;4998478;28;20103;-86
2023/03/09 01:55:10;;;;;;;13.18;5.32;;;5.40;99.90;;;;;;4963794;28;20029;-87
2023/03/09 01:57:53;;;;;;;12.73;5.17;;;5.40;99.90;;;;;;4997492;28;20060;-87
2023/03/09 02:00:24;;;;;;;12.05;5.35;;;5.40;99.90;;;;;;4976565;28;20190;-86
2023/03/09 02:03:17;;;;;;;13.07;5.38;;;5.40;99.90;;;;;;5006392;28;20079;-86
2023/03/09 02:06:09;;;;;;;13.07;5.10;;;5.40;99.90;;;;;;4964483;28;20080;-87
2023/03/09 02:08:36;;;;;;;13.13;5.47;;;5.40;99.90;;;;;;4995879;28;20495;-87
2023/03/09 02:11:06;;;;;;;12.87;5.23;;;5.40;99.90;;;;;;4971676;28;20556;-87
2023/03/09 02:13:36;;;;;;;13.18;5.05;;;5.40;99.90;;;;;;5028101;28;20481;-87
2023/03/09 02:16:02;;;;;;;13.27;5.45;;;5.40;99.90;;;;;;4996008;28;20419;-86
2023/03/09 02:18:28;;;;;;;14.35;5.72;;;5.30;99.90;;;;;;4970154;28;20132;-87
2023/03/09 02:21:14;;;;;;;14.60;5.60;;;5.40;99.90;;;;;;4984994;28;20832;-87
2023/03/09 02:24:24;;;;;;;13.60;5.07;;;5.30;99.90;;;;;;5009934;28;20728;-87
2023/03/09 02:27:09;;;;;;;14.77;5.18;;;5.30;99.90;;;;;;4981704;28;20042;-86
2023/03/09 02:29:35;;;;;;;10.98;4.53;;;5.30;99.90;;;;;;5007457;28;20026;-88
2023/03/09 02:32:01;;;;;;;14.02;5.45;;;5.30;99.90;;;;;;4979218;28;20026;-88
2023/03/09 02:34:27;;;;;;;12.93;5.23;;;5.30;99.90;;;;;;4971133;28;20037;-87
2023/03/09 02:36:52;;;;;;;13.95;5.40;;;5.30;99.90;;;;;;4966099;28;20606;-89
2023/03/09 02:39:28;;;;;;;14.77;5.65;;;5.30;99.90;;;;;;4986987;28;20458;-89
2023/03/09 02:41:57;;;;;;;18.17;5.75;;;5.30;99.90;;;;;;5004273;28;20506;-89
2023/03/09 02:44:24;;;;;;;14.50;5.83;;;5.30;99.90;;;;;;5009192;28;20030;-89
2023/03/09 02:46:50;;;;;;;13.70;5.63;;;5.30;99.90;;;;;;4985297;28;20543;-89
2023/03/09 02:49:17;;;;;;;13.40;5.15;;;5.30;99.90;;;;;;4967815;28;20113;-88
2023/03/09 02:51:43;;;;;;;12.33;5.20;;;5.30;99.90;;;;;;4991764;28;20091;-88
2023/03/09 02:54:09;;;;;;;14.05;5.38;;;5.30;99.90;;;;;;4998148;28;20538;-89
2023/03/09 02:56:35;;;;;;;13.02;5.05;;;5.20;99.90;;;;;;5019162;28;20040;-89
2023/03/09 02:59:02;;;;;;;13.37;5.10;;;5.20;99.90;;;;;;4996751;28;20022;-89
2023/03/09 03:01:29;;;;;;;12.45;5.15;;;5.30;99.90;;;;;;5011606;28;20081;-88
2023/03/09 03:03:55;;;;;;;13.65;5.10;;;5.30;99.90;;;;;;5005946;28;20972;-90
2023/03/09 03:06:21;;;;;;;13.05;4.85;;;5.30;99.90;;;;;;5008621;28;20049;-88
2023/03/09 03:08:47;;;;;;;10.60;4.63;;;5.30;99.90;;;;;;4994226;28;20029;-90
2023/03/09 03:11:13;;;;;;;11.30;4.47;;;5.30;99.90;;;;;;4998756;28;20041;-89
2023/03/09 03:13:38;;;;;;;13.05;5.38;;;5.30;99.90;;;;;;4983313;28;20396;-89
2023/03/09 03:16:05;;;;;;;13.43;5.18;;;5.30;99.90;;;;;;5008166;28;20113;-89
2023/03/09 03:18:31;;;;;;;11.93;4.80;;;5.30;99.90;;;;;;4993783;28;20669;-88
2023/03/09 03:20:57;;;;;;;13.80;5.60;;;5.30;99.90;;;;;;4974374;28;20022;-88
2023/03/09 03:23:23;;;;;;;14.38;5.50;;;5.30;99.90;;;;;;4983104;28;20049;-89
2023/03/09 03:25:49;;;;;;;13.45;5.00;;;5.30;99.90;;;;;;4984746;28;20378;-90
2023/03/09 03:28:15;;;;;;;13.98;4.90;;;5.30;99.90;;;;;;5014947;28;20068;-90
2023/03/09 03:30:41;;;;;;;11.07;4.77;;;5.30;99.90;;;;;;4982324;28;20040;-88
2023/03/09 03:33:07;;;;;;;11.60;4.68;;;5.30;99.90;;;;;;4988188;28;21077;-90
2023/03/09 03:35:33;;;;;;;13.30;4.78;;;5.30;99.90;;;;;;4965565;28;20029;-88
2023/03/09 03:37:59;;;;;;;12.33;5.00;;;5.20;99.90;;;;;;4972314;28;20028;-90
2023/03/09 03:40:26;;;;;;;11.45;4.65;;;5.30;99.90;;;;;;4996498;28;20025;-89
2023/03/09 03:42:51;;;;;;;11.18;4.78;;;5.30;99.90;;;;;;4989684;28;20134;-89
2023/03/09 03:45:18;;;;;;;12.27;4.93;;;5.30;99.90;;;;;;5005165;28;20025;-89
2023/03/09 03:47:43;;;;;;;10.30;4.33;;;5.30;99.90;;;;;;5003424;28;20033;-89
2023/03/09 03:50:10;;;;;;;10.52;4.53;;;5.30;99.90;;;;;;4990755;28;20029;-89
2023/03/09 03:52:35;;;;;;;12.95;5.13;;;5.30;99.90;;;;;;4977536;28;20030;-89
2023/03/09 03:55:01;;;;;;;13.10;5.37;;;5.30;99.90;;;;;;5002792;28;20028;-90
2023/03/09 03:57:27;;;;;;;12.02;4.63;;;5.30;99.90;;;;;;4994487;28;20048;-89
2023/03/09 03:59:53;;;;;;;9.97;4.50;;;5.30;99.90;;;;;;4995259;28;20148;-89
2023/03/09 04:02:18;;;;;;;12.90;4.78;;;5.30;99.90;;;;;;4982760;28;20293;-90
2023/03/09 04:04:44;;;;;;;11.00;4.17;;;5.30;99.90;;;;;;4979806;28;20050;-91
2023/03/09 04:07:09;;;;;;;12.33;4.87;;;5.30;99.90;;;;;;4978511;28;20728;-90
2023/03/09 04:09:35;;;;;;;11.18;4.22;;;5.30;99.90;;;;;;4972327;28;20026;-89
2023/03/09 04:12:01;;;;;;;11.05;4.68;;;5.30;99.90;;;;;;4996286;28;20117;-89
2023/03/09 04:14:27;;;;;;;10.67;4.47;;;5.30;99.90;;;;;;4973807;28;20064;-91
2023/03/09 04:16:53;;;;;;;12.68;4.97;;;5.30;99.90;;;;;;4988620;28;20471;-90
2023/03/09 04:19:19;;;;;;;10.23;4.38;;;5.30;99.90;;;;;;4993319;28;20116;-89
2023/03/09 04:21:45;;;;;;;11.40;4.40;;;5.30;99.90;;;;;;4980622;28;20037;-90
2023/03/09 04:24:10;;;;;;;11.23;4.70;;;5.30;99.90;;;;;;4977314;28;20036;-89
2023/03/09 04:26:36;;;;;;;11.43;4.93;;;5.30;99.90;;;;;;4980595;28;20045;-89
2023/03/09 04:29:02;;;;;;;11.52;4.53;;;5.30;99.90;;;;;;4970679;28;20059;-89
2023/03/09 04:31:28;;;;;;;11.17;4.80;;;5.30;99.90;;;;;;5000074;28;20022;-90
2023/03/09 04:33:53;;;;;;;10.55;5.05;;;5.30;99.90;;;;;;5003667;28;20033;-89
2023/03/09 04:36:19;;;;;;;13.77;4.97;;;5.30;99.90;;;;;;4997077;28;20044;-91
2023/03/09 04:38:45;;;;;;;9.68;4.20;;;5.30;99.90;;;;;;4990955;28;20616;-88
2023/03/09 04:41:12;;;;;;;10.70;4.00;;;5.30;99.90;;;;;;4994540;28;20148;-89
2023/03/09 04:43:38;;;;;;;9.25;3.92;;;5.30;99.90;;;;;;4969610;28;20030;-88
2023/03/09 04:46:04;;;;;;;11.23;4.63;;;5.30;99.90;;;;;;5004725;28;20021;-90
2023/03/09 04:48:29;;;;;;;9.67;4.27;;;5.30;99.90;;;;;;4997798;28;20108;-89
2023/03/09 04:50:55;;;;;;;11.85;4.65;;;5.30;99.90;;;;;;5000807;28;20045;-89
2023/03/09 04:53:21;;;;;;;11.77;5.00;;;5.30;99.90;;;;;;4993787;28;20079;-89
2023/03/09 04:55:46;;;;;;;10.57;4.38;;;5.20;99.90;;;;;;4981810;28;20072;-90
2023/03/09 04:58:12;;;;;;;13.07;5.13;;;5.30;99.90;;;;;;4987101;28;20017;-90
2023/03/09 05:00:38;;;;;;;11.20;4.53;;;5.20;99.90;;;;;;4979563;28;20017;-89
2023/03/09 05:03:04;;;;;;;10.75;4.70;;;5.20;99.90;;;;;;4988776;28;20033;-91
2023/03/09 05:05:30;;;;;;;11.43;4.00;;;5.20;99.90;;;;;;5005976;28;20020;-89
2023/03/09 05:07:55;;;;;;;9.82;4.25;;;5.20;99.90;;;;;;4977579;28;20041;-89
2023/03/09 05:10:21;;;;;;;13.03;5.03;;;5.20;99.90;;;;;;5007408;28;20440;-91
2023/03/09 05:12:47;;;;;;;12.23;5.15;;;5.20;99.90;;;;;;4987311;28;20422;-88
2023/03/09 05:15:13;;;;;;;12.85;5.13;;;5.20;99.90;;;;;;4985688;28;20014;-90
2023/03/09 05:17:39;;;;;;;9.97;4.47;;;5.20;99.90;;;;;;4974448;28;20522;-88
2023/03/09 05:20:09;;;;;;;11.40;5.00;;;5.20;99.90;;;;;;5015230;28;20208;-90
2023/03/09 05:22:35;;;;;;;11.57;4.60;;;5.20;99.90;;;;;;5038492;28;20703;-91
2023/03/09 05:25:01;;;;;;;12.40;5.03;;;5.20;99.90;;;;;;4983902;28;20060;-89
2023/03/09 05:27:27;;;;;;;10.25;4.47;;;5.20;99.90;;;;;;4990148;28;20601;-90
2023/03/09 05:29:53;;;;;;;13.53;5.33;;;5.20;99.90;;;;;;5007388;28;20025;-88
2023/03/09 05:32:19;;;;;;;13.30;4.78;;;5.20;99.90;;;;;;5006783;28;20060;-89
2023/03/09 05:34:46;;;;;;;10.30;5.10;;;5.20;99.90;;;;;;5018950;28;20052;-88
2023/03/09 05:37:11;;;;;;;12.85;4.75;;;5.20;99.90;;;;;;4995512;28;20036;-89
2023/03/09 05:39:37;;;;;;;10.70;4.78;;;5.10;99.90;;;;;;4958894;28;20131;-90
2023/03/09 05:42:03;;;;;;;12.50;5.07;;;5.10;99.90;;;;;;4998361;28;20068;-88
2023/03/09 05:44:29;;;;;;;10.32;4.45;;;5.10;99.90;;;;;;4970603;28;20102;-88
2023/03/09 05:46:55;;;;;;;11.90;4.95;;;5.20;99.90;;;;;;4973906;28;20124;-89
2023/03/09 05:49:20;;;;;;;11.37;4.30;;;5.20;99.90;;;;;;4996440;28;20045;-89
2023/03/09 05:51:46;;;;;;;12.65;4.97;;;5.20;99.90;;;;;;4997692;28;20045;-89
2023/03/09 05:54:12;;;;;;;10.97;4.40;;;5.20;99.90;;;;;;5002579;28;20025;-88
2023/03/09 05:56:37;;;;;;;12.57;4.97;;;5.20;99.90;;;;;;4968044;28;20026;-88
2023/03/09 05:59:03;;;;;;;11.53;4.57;;;5.20;99.90;;;;;;4987159;28;20029;-90
2023/03/09 06:01:30;;;;;;;10.65;4.45;;;5.20;99.90;;;;;;4994981;28;20274;-90
2023/03/09 06:03:55;;;;;;;12.52;5.20;;;5.20;99.90;;;;;;4986583;28;20112;-89
2023/03/09 06:06:22;;;;;;;11.73;4.80;;;5.20;99.90;;;;;;4983487;28;20116;-88
2023/03/09 06:08:48;;;;;;;10.82;4.63;;;5.20;99.90;;;;;;4981479;28;20029;-89
2023/03/09 06:11:14;;;;;;;12.75;4.72;;;5.20;99.90;;;;;;4959920;28;20032;-89
2023/03/09 06:13:40;;;;;;;13.00;4.65;;;5.20;99.90;;;;;;4998818;28;20361;-89
2023/03/09 06:16:08;;;;;;;10.30;4.50;;;5.20;99.90;;;;;;4985098;28;20010;-89
2023/03/09 06:18:34;;;;;;;10.10;4.50;;;5.20;99.90;;;;;;5003398;28;20088;-89
2023/03/09 06:21:01;;;;;;;9.73;4.00;;;5.20;99.90;;;;;;5004300;28;20538;-91
2023/03/09 06:23:27;;;;;;;11.60;4.75;;;5.20;99.90;;;;;;4998559;28;20047;-89
2023/03/09 06:25:53;;;;;;;11.23;4.72;;;5.20;99.90;;;;;;4965378;28;20033;-88
2023/03/09 06:28:19;;;;;;;11.45;4.80;;;5.20;99.90;;;;;;5012884;28;20029;-89
2023/03/09 06:30:45;;;;;;;11.07;4.60;;;5.20;99.90;;;;;;5003904;28;20498;-90
2023/03/09 06:33:11;;;;;;;9.57;4.28;;;5.20;99.90;;;;;;4996356;28;20663;-88
2023/03/09 06:35:37;;;;;;;11.73;4.65;;;5.30;99.90;;;;;;4988668;28;20496;-87
2023/03/09 06:38:03;;;;;;;10.52;4.65;;;5.30;99.90;;;;;;4981644;28;20021;-88
2023/03/09 06:40:29;;;;;;;11.07;4.30;;;5.30;99.90;;;;;;4988938;28;20029;-89
2023/03/09 06:42:55;;;;;;;12.63;5.00;;;5.30;99.90;;;;;;4993198;28;20477;-89
2023/03/09 06:45:21;;;;;;;11.60;4.43;;;5.30;99.90;;;;;;5011915;28;20021;-89
2023/03/09 06:47:47;;;;;;;11.55;4.68;;;5.30;99.90;;;;;;4957036;28;20442;-88
2023/03/09 06:50:13;;;;;;;10.38;4.18;;;5.30;99.90;;;;;;5014065;28;20483;-88
2023/03/09 06:52:39;;;;;;;11.35;4.43;;;5.30;99.90;;;;;;4981794;28;20751;-88
2023/03/09 06:55:06;;;;;;;10.38;4.10;;;5.30;99.90;;;;;;4989972;28;20166;-89
2023/03/09 06:57:31;;;;;;;11.23;4.50;;;5.40;99.90;;;;;;4975080;28;20030;-88
2023/03/09 06:59:57;;;;;;;12.10;4.88;;;5.40;99.90;;;;;;4993733;28;20048;-88
2023/03/09 07:02:23;;;;;;;9.50;4.40;;;5.40;99.90;;;;;;4969386;28;20187;-88
2023/03/09 07:04:49;;;;;;;11.85;4.55;;;5.40;99.90;;;;;;5002806;28;20111;-88
2023/03/09 07:07:15;;;;;;;12.50;4.53;;;5.40;99.90;;;;;;5016360;28;20037;-88
2023/03/09 07:09:41;;;;;;;10.80;4.20;;;5.40;99.90;;;;;;4991109;28;20449;-89
2023/03/09 07:12:07;;;;;;;8.40;3.50;;;5.40;99.90;;;;;;4960271;28;20153;-89
2023/03/09 07:14:33;;;;;;;10.63;4.65;;;5.40;99.90;;;;;;4994745;28;20029;-88
2023/03/09 07:16:59;;;;;;;11.55;4.53;;;5.40;99.90;;;;;;4981845;28;20538;-89
2023/03/09 07:19:25;;;;;;;10.27;4.67;;;5.40;99.90;;;;;;4998314;28;20211;-89
2023/03/09 07:21:53;;;;;;;10.52;4.35;;;5.50;99.90;;;;;;4982168;28;20064;-89
2023/03/09 07:24:19;;;;;;;11.70;5.10;;;5.50;99.90;;;;;;4980452;28;20052;-90
2023/03/09 07:26:46;;;;;;;11.27;4.50;;;5.50;99.90;;;;;;4987187;28;20518;-89
2023/03/09 07:29:12;;;;;;;12.35;4.80;;;5.50;99.90;;;;;;4999058;28;20029;-88
2023/03/09 07:31:40;;;;;;;12.32;5.05;;;5.60;99.90;;;;;;4987269;28;20556;-88
2023/03/09 07:34:05;;;;;;;10.80;4.55;;;5.60;99.90;;;;;;5008258;28;20091;-88
2023/03/09 07:36:31;;;;;;;11.97;4.73;;;5.70;99.90;;;;;;4985242;28;20558;-88
2023/03/09 07:38:57;;;;;;;10.13;4.85;;;5.70;99.90;;;;;;5009311;28;20124;-88
2023/03/09 07:41:23;;;;;;;11.45;4.80;;;5.80;99.90;;;;;;4963160;28;20214;-87
2023/03/09 07:43:49;;;;;;;14.30;5.43;;;5.80;99.90;;;;;;4973954;28;20041;-88
2023/03/09 07:46:17;;;;;;;12.10;5.43;;;5.80;99.90;;;;;;4996620;28;20110;-88
2023/03/09 07:48:44;;;;;;;13.52;5.57;;;5.90;99.90;;;;;;5018389;28;20048;-87
2023/03/09 07:51:11;;;;;;;13.05;5.22;;;5.90;99.90;;;;;;4991438;28;20482;-88
2023/03/09 07:53:38;;;;;;;10.93;4.80;;;6.00;99.90;;;;;;5021990;28;20670;-87
2023/03/09 07:56:05;;;;;;;10.65;4.72;;;6.00;99.90;;;;;;5008900;28;20585;-88
2023/03/09 07:58:32;;;;;;;11.90;4.70;;;6.10;99.90;;;;;;4985956;28;20112;-87
2023/03/09 08:00:58;;;;;;;12.10;4.70;;;6.10;99.90;;;;;;4998855;28;20108;-88
2023/03/09 08:03:25;;;;;;;10.60;4.37;;;6.10;99.90;;;;;;4996938;28;20255;-87
2023/03/09 08:05:54;;;;;;;11.35;4.55;;;6.10;99.90;;;;;;4997495;28;20037;-88
2023/03/09 08:08:26;;;;;;;10.30;4.43;;;6.20;99.90;;;;;;4962618;28;20033;-88
2023/03/09 08:10:52;;;;;;;8.77;4.07;;;6.20;99.90;;;;;;4996499;28;20036;-89
2023/03/09 08:13:21;;;;;;;9.35;4.03;;;6.30;99.90;;;;;;4951354;28;20113;-88
2023/03/09 08:15:47;;;;;;;11.67;4.40;;;6.30;99.90;;;;;;4987422;28;20413;-88
2023/03/09 08:18:13;;;;;;;10.90;4.75;;;6.40;99.90;;;;;;5014090;28;20032;-88
2023/03/09 08:20:39;;;;;;;11.65;4.82;;;6.40;99.90;;;;;;4969834;28;20054;-88
2023/03/09 08:23:05;;;;;;;12.80;4.85;;;6.50;99.90;;;;;;5002610;28;20030;-88
2023/03/09 08:25:32;;;;;;;11.80;4.67;;;6.50;99.90;;;;;;4973765;28;20115;-88
2023/03/09 08:27:58;;;;;;;11.43;4.78;;;6.50;99.90;;;;;;4979230;28;20370;-87
2023/03/09 08:30:24;;;;;;;12.60;4.65;;;6.60;99.90;;;;;;4958339;28;20029;-88
2023/03/09 08:32:51;;;;;;;11.32;4.65;;;6.60;99.90;;;;;;4994674;28;20120;-87
2023/03/09 08:35:19;;;;;;;11.05;5.07;;;6.60;99.90;;;;;;4969450;28;20017;-87
2023/03/09 08:37:45;;;;;;;12.47;5.17;;;6.70;99.90;;;;;;5006858;28;20026;-86
2023/03/09 08:40:13;;;;;;;11.40;4.57;;;6.70;99.90;;;;;;4985759;28;20095;-87
2023/03/09 08:42:39;;;;;;;9.77;4.35;;;6.70;99.90;;;;;;5004228;28;20311;-88
2023/03/09 08:45:05;;;;;;;11.73;4.78;;;6.80;99.90;;;;;;4972772;28;20039;-88
2023/03/09 08:47:31;;;;;;;13.82;5.40;;;6.80;99.90;;;;;;5006165;28;20029;-88
2023/03/09 08:49:58;;;;;;;12.47;4.53;;;6.80;99.90;;;;;;4980785;28;20486;-87
2023/03/09 08:52:24;;;;;;;13.25;4.60;;;6.80;99.90;;;;;;4964262;28;22866;-88
2023/03/09 08:54:50;;;;;;;12.60;4.95;;;6.80;99.90;;;;;;4977914;28;20664;-87
2023/03/09 08:57:17;;;;;;;12.43;5.07;;;6.80;99.90;;;;;;4981412;28;20262;-87
2023/03/09 08:59:46;;;;;;;13.75;5.40;;;6.80;99.90;;;;;;4991169;28;20029;-87
2023/03/09 09:02:14;;;;;;;12.17;4.67;;;6.80;99.90;;;;;;4981691;28;20568;-87
2023/03/09 09:04:44;;;;;;;11.68;4.57;;;6.80;99.90;;;;;;4984178;28;20033;-86
2023/03/09 09:07:11;;;;;;;10.88;4.53;;;6.80;99.90;;;;;;5002776;28;20029;-88
2023/03/09 09:09:38;;;;;;;9.23;4.03;;;6.90;99.90;;;;;;4962617;28;20072;-86
2023/03/09 09:12:05;;;;;;;10.68;4.88;;;6.90;99.90;;;;;;5015356;28;20469;-87
2023/03/09 09:14:32;;;;;;;12.03;4.80;;;7.00;99.90;;;;;;4977113;28;20029;-87
2023/03/09 09:16:58;;;;;;;13.98;5.38;;;7.00;99.90;;;;;;5001074;28;20030;-87
2023/03/09 09:19:24;;;;;;;12.07;5.30;;;7.00;99.90;;;;;;4989321;28;20303;-87
2023/03/09 09:21:51;;;;;;;12.55;4.90;;;7.10;99.90;;;;;;4970728;28;20024;-86
2023/03/09 09:24:18;;;;;;;11.37;4.33;;;7.10;99.90;;;;;;4967216;28;20029;-86
2023/03/09 09:26:44;;;;;;;11.98;4.75;;;7.20;99.90;;;;;;5001771;28;20050;-86
2023/03/09 09:29:10;;;;;;;11.20;4.60;;;7.30;99.90;;;;;;4979981;28;20126;-87
2023/03/09 09:31:37;;;;;;;8.65;3.63;;;7.30;99.90;;;;;;4972726;28;20041;-86
2023/03/09 09:34:03;;;;;;;11.82;5.45;;;7.40;99.90;;;;;;5028985;28;20038;-88
2023/03/09 09:36:29;;;;;;;12.30;5.33;;;7.40;99.90;;;;;;5015732;28;20294;-86
2023/03/09 09:38:55;;;;;;;11.30;4.55;;;7.50;99.90;;;;;;4975261;28;20095;-88
2023/03/09 09:41:42;;;;;;;11.90;4.70;;;7.50;99.90;;;;;;4984629;28;20029;-87
2023/03/09 09:44:46;;;;;;;10.43;4.20;;;7.50;99.90;;;;;;4989328;28;20034;-88
2023/03/09 09:47:17;;;;;;;12.18;4.82;;;7.60;99.90;;;;;;4968931;28;20503;-86
2023/03/09 09:49:46;;;;;;;10.80;4.55;;;7.60;99.90;;;;;;4980470;28;20026;-86
2023/03/09 09:52:24;;;;;;;9.68;4.20;;;7.60;99.90;;;;;;4985793;28;20017;-87
2023/03/09 09:55:00;;;;;;;10.85;4.78;;;7.60;99.90;;;;;;4980727;28;20034;-86
2023/03/09 09:57:35;;;;;;;10.93;4.40;;;7.60;99.90;;;;;;4995332;28;20239;-86
2023/03/09 10:00:11;;;;;;;10.88;4.50;;;7.60;99.90;;;;;;4968509;28;20096;-88
2023/03/09 10:02:52;;;;;;;14.73;5.63;;;7.60;99.90;;;;;;4963122;28;20029;-87
2023/03/09 10:05:58;;;;;;;12.82;5.07;;;7.60;99.90;;;;;;4993794;28;20114;-86
2023/03/09 10:08:45;;;;;;;12.25;4.97;;;7.60;99.90;;;;;;4989093;28;20022;-88
2023/03/09 10:11:15;;;;;;;10.80;4.83;;;7.60;99.90;;;;;;5007575;28;20505;-86
2023/03/09 10:13:45;;;;;;;11.60;4.53;;;7.60;99.90;;;;;;4982873;28;22082;-86
2023/03/09 10:16:29;;;;;;;13.25;5.00;;;7.60;99.90;;;;;;4979362;28;20447;-86
2023/03/09 10:19:07;;;;;;;12.10;5.13;;;7.60;99.90;;;;;;4984708;28;20337;-87
2023/03/09 10:21:57;;;;;;;13.15;5.05;;;7.60;99.90;;;;;;4997739;28;20022;-88
2023/03/09 10:24:31;;;;;;;12.77;4.93;;;7.60;99.90;;;;;;4988751;28;20346;-88
2023/03/09 10:27:15;;;;;;;11.30;4.13;;;7.70;99.90;;;;;;4985977;28;20144;-86
2023/03/09 10:29:56;;;;;;;10.68;4.43;;;7.70;99.90;;;;;;4977996;28;20406;-86
2023/03/09 10:32:37;;;;;;;12.02;4.97;;;7.70;99.90;;;;;;4960325;28;20030;-87
2023/03/09 10:35:20;;;;;;;11.25;4.80;;;7.70;99.90;;;;;;4995441;28;20044;-87
2023/03/09 10:37:50;;;;;;;14.87;5.70;;;7.70;99.90;;;;;;4959412;28;20226;-88
2023/03/09 10:40:32;;;;;;;11.35;5.05;;;7.80;99.90;;;;;;4979314;28;20053;-86
2023/03/09 10:42:59;;;;;;;12.45;5.20;;;7.90;99.90;;;;;;4986883;28;20034;-86
2023/03/09 10:45:33;;;;;;;12.32;5.28;;;7.90;99.90;;;;;;4970348;28;20062;-88
2023/03/09 10:47:59;;;;;;;11.20;4.63;;;8.00;99.90;;;;;;4973495;28;20318;-87
2023/03/09 10:50:31;;;;;;;12.30;5.33;;;8.00;99.90;;;;;;4977858;28;20395;-87
2023/03/09 10:52:57;;;;;;;12.80;5.35;;;8.10;99.90;;;;;;4995611;28;20060;-86
2023/03/09 10:55:29;;;;;;;13.07;5.40;;;8.10;99.90;;;;;;4965183;28;20045;-88
2023/03/09 10:58:00;;;;;;;11.68;4.57;;;8.10;99.90;;;;;;4978854;28;20049;-87
2023/03/09 11:00:27;;;;;;;12.55;5.38;;;8.10;99.90;;;;;;4979527;28;20028;-88
2023/03/09 11:02:56;;;;;;;14.57;5.10;;;8.10;99.90;;;;;;4981630;28;20026;-88
2023/03/09 11:05:26;;;;;;;11.60;4.70;;;8.10;99.90;;;;;;4995952;28;20054;-88
2023/03/09 11:07:55;;;;;;;9.90;4.95;;;8.10;99.90;;;;;;4994911;28;20152;-88
2023/03/09 11:10:30;;;;;;;11.50;4.88;;;8.10;99.90;;;;;;4981555;28;20294;-89
2023/03/09 11:12:57;;;;;;;9.20;3.90;;;8.20;99.90;;;;;;4995907;28;20259;-88
2023/03/09 11:15:27;;;;;;;9.83;4.63;;;8.20;99.90;;;;;;4966584;28;20026;-88
2023/03/09 11:17:54;;;;;;;12.23;4.72;;;8.30;99.90;;;;;;4965082;28;20291;-87
2023/03/09 11:20:28;;;;;;;11.65;4.75;;;8.30;99.90;;;;;;4994404;28;20062;-88
2023/03/09 11:23:16;;;;;;;11.90;5.03;;;8.30;99.90;;;;;;4978019;28;20021;-88
2023/03/09 11:26:00;;;;;;;11.48;4.90;;;8.30;99.90;;;;;;4962947;28;20338;-88
2023/03/09 11:29:00;;;;;;;12.30;4.60;;;8.40;99.90;;;;;;4986167;28;20033;-88
2023/03/09 11:31:42;;;;;;;10.85;4.55;;;8.40;99.90;;;;;;4985973;28;20034;-89
2023/03/09 11:34:15;;;;;;;11.10;4.70;;;8.40;99.90;;;;;;5007169;28;20047;-89
2023/03/09 11:36:56;;;;;;;9.45;4.25;;;8.40;99.90;;;;;;5016913;28;20388;-89
2023/03/09 11:39:49;;;;;;;10.98;4.82;;;8.50;99.90;;;;;;4989642;28;20071;-89
2023/03/09 11:42:19;;;;;;;10.70;4.03;;;8.50;99.90;;;;;;5003262;28;20045;-90
2023/03/09 11:44:47;;;;;;;12.30;5.05;;;8.50;99.90;;;;;;4997528;28;20056;-89
2023/03/09 11:47:29;;;;;;;11.75;4.82;;;8.50;99.90;;;;;;4957125;28;20048;-90
2023/03/09 11:49:59;;;;;;;11.20;4.47;;;8.50;99.90;;;;;;4982421;28;20069;-90
2023/03/09 11:52:39;;;;;;;11.25;4.35;;;8.50;99.90;;;;;;4991896;28;20114;-89
2023/03/09 11:55:15;;;;;;;12.97;5.67;;;8.50;99.90;;;;;;4984822;28;20044;-89
2023/03/09 11:57:45;;;;;;;12.52;5.18;;;8.50;99.90;;;;;;4993893;28;20155;-89
2023/03/09 12:00:14;;;;;;;12.18;5.50;;;8.40;99.90;;;;;;4981192;28;20073;-90
2023/03/09 12:03:15;;;;;;;13.35;5.35;;;8.40;99.90;;;;;;5006289;28;20431;-90
2023/03/09 12:05:55;;;;;;;10.55;4.63;;;8.30;99.90;;;;;;4990042;28;20105;-90
2023/03/09 12:08:31;;;;;;;9.37;4.27;;;8.40;99.90;;;;;;4987916;28;20237;-89
2023/03/09 12:11:10;;;;;;;10.15;4.15;;;8.40;99.90;;;;;;4982993;28;20029;-90
2023/03/09 12:13:43;;;;;;;10.93;4.57;;;8.40;99.90;;;;;;4975699;28;20197;-91
2023/03/09 12:16:20;;;;;;;11.07;4.50;;;8.40;99.90;;;;;;4990942;28;20742;-90
2023/03/09 12:19:01;;;;;;;11.07;4.80;;;8.50;99.90;;;;;;4994447;28;20120;-91
2023/03/09 12:21:35;;;;;;;8.90;4.23;;;8.50;99.90;;;;;;4998193;28;20678;-90
2023/03/09 12:24:25;;;;;;;11.35;4.88;;;8.50;99.90;;;;;;4990802;28;20429;-91
2023/03/09 12:27:20;;;;;;;11.32;4.30;;;8.60;99.90;;;;;;4989102;28;20422;-90
2023/03/09 12:29:50;;;;;;;11.18;5.00;;;8.60;99.90;;;;;;5009623;28;20364;-90
2023/03/09 12:32:15;;;;;;;10.73;4.50;;;8.70;99.90;;;;;;5010753;28;20390;-90
2023/03/09 12:34:43;;;;;;;8.73;3.93;;;8.70;99.90;;;;;;4989740;28;20045;-88
2023/03/09 12:37:27;;;;;;;10.38;4.85;;;8.80;99.90;;;;;;4998816;28;20029;-89
2023/03/09 12:40:18;;;;;;;13.23;5.15;;;8.80;99.90;;;;;;4974188;28;20051;-88
2023/03/09 12:42:46;;;;;;;12.65;5.07;;;8.90;99.90;;;;;;5016813;28;20057;-89
2023/03/09 12:45:11;;;;;;;13.07;5.00;;;9.00;99.90;;;;;;5003952;28;20048;-89
2023/03/09 12:48:08;;;;;;;10.80;4.90;;;9.00;99.90;;;;;;4969196;28;20809;-90
2023/03/09 12:50:46;;;;;;;10.40;4.40;;;9.20;99.90;;;;;;4960598;28;20591;-88
2023/03/09 12:53:16;;;;;;;9.70;4.90;;;9.30;99.90;;;;;;5013894;28;20037;-89
2023/03/09 12:55:54;;;;;;;10.20;4.03;;;9.40;99.90;;;;;;5016960;28;20041;-89
2023/03/09 12:58:20;;;;;;;10.70;4.55;;;9.50;99.90;;;;;;4985055;28;20383;-89
2023/03/09 13:00:53;;;;;;;10.20;4.60;;;9.70;99.90;;;;;;5031254;28;20090;-88